sensor_id;sensor_type;location;lat;lon;timestamp;temperature;humidity
26745;DHT22;14342;50.960;13.880;2023-03-04T00:00:43;2.20;99.90
26745;DHT22;14342;50.960;13.880;2023-03-04T00:01:45;2.10;99.90
26745;DHT22;14342;50.960;13.880;2023-03-04T00:02:47;1.90;99.90
26745;DHT22;14342;50.960;13.880;2023-03-04T00:03:47;1.90;99.90
26745;DHT22;14342;50.960;13.880;2023-03-04T00:04:49;2.10;99.90
26745;DHT22;14342;50.960;13.880;2023-03-04T00:05:49;2.00;99.90
26745;DHT22;14342;50.960;13.880;2023-03-04T00:06:51;2.00;99.90
26745;DHT22;14342;50.960;13.880;2023-03-04T00:07:51;2.00;99.90
26745;DHT22;14342;50.960;13.880;2023-03-04T00:08:53;1.80;99.90
26745;DHT22;14342;50.960;13.880;2023-03-04T00:09:53;1.70;99.90
26745;DHT22;14342;50.960;13.880;2023-03-04T00:10:56;1.60;99.90
26745;DHT22;14342;50.960;13.880;2023-03-04T00:11:57;1.50;99.90
26745;DHT22;14342;50.960;13.880;2023-03-04T00:12:58;1.40;99.90
26745;DHT22;14342;50.960;13.880;2023-03-04T00:13:59;1.40;99.90
26745;DHT22;14342;50.960;13.880;2023-03-04T00:15:00;1.50;99.90
26745;DHT22;14342;50.960;13.880;2023-03-04T00:16:01;1.50;99.90
26745;DHT22;14342;50.960;13.880;2023-03-04T00:17:03;1.50;99.90
26745;DHT22;14342;50.960;13.880;2023-03-04T00:18:03;1.50;99.90
26745;DHT22;14342;50.960;13.880;2023-03-04T00:19:05;1.50;99.90
26745;DHT22;14342;50.960;13.880;2023-03-04T00:20:06;1.40;99.90
26745;DHT22;14342;50.960;13.880;2023-03-04T00:21:08;1.50;99.90
26745;DHT22;14342;50.960;13.880;2023-03-04T00:22:08;1.60;99.90
26745;DHT22;14342;50.960;13.880;2023-03-04T00:23:10;1.70;99.90
26745;DHT22;14342;50.960;13.880;2023-03-04T00:24:11;1.90;99.90
26745;DHT22;14342;50.960;13.880;2023-03-04T00:25:12;1.70;99.90
26745;DHT22;14342;50.960;13.880;2023-03-04T00:26:14;1.60;99.90
26745;DHT22;14342;50.960;13.880;2023-03-04T00:27:16;1.70;99.90
26745;DHT22;14342;50.960;13.880;2023-03-04T00:28:16;1.70;99.90
26745;DHT22;14342;50.960;13.880;2023-03-04T00:29:18;1.80;99.90
26745;DHT22;14342;50.960;13.880;2023-03-04T00:30:19;1.90;99.90
26745;DHT22;14342;50.960;13.880;2023-03-04T00:31:20;1.90;99.90
26745;DHT22;14342;50.960;13.880;2023-03-04T00:32:21;1.70;99.90
26745;DHT22;14342;50.960;13.880;2023-03-04T00:33:22;1.70;99.90
26745;DHT22;14342;50.960;13.880;2023-03-04T00:34:23;1.70;99.90
26745;DHT22;14342;50.960;13.880;2023-03-04T00:35:24;1.60;99.90
26745;DHT22;14342;50.960;13.880;2023-03-04T00:36:25;1.60;99.90
26745;DHT22;14342;50.960;13.880;2023-03-04T00:37:26;1.60;99.90
26745;DHT22;14342;50.960;13.880;2023-03-04T00:38:27;1.50;99.90
26745;DHT22;14342;50.960;13.880;2023-03-04T00:39:29;1.90;99.90
26745;DHT22;14342;50.960;13.880;2023-03-04T00:40:29;1.70;99.90
26745;DHT22;14342;50.960;13.880;2023-03-04T00:41:32;1.60;99.90
26745;DHT22;14342;50.960;13.880;2023-03-04T00:42:32;1.60;99.90
26745;DHT22;14342;50.960;13.880;2023-03-04T00:43:34;1.50;99.90
26745;DHT22;14342;50.960;13.880;2023-03-04T00:44:34;1.50;99.90
26745;DHT22;14342;50.960;13.880;2023-03-04T00:45:36;1.60;99.90
26745;DHT22;14342;50.960;13.880;2023-03-04T00:46:36;1.60;99.90
26745;DHT22;14342;50.960;13.880;2023-03-04T00:47:38;1.70;99.90
26745;DHT22;14342;50.960;13.880;2023-03-04T00:48:38;1.80;99.90
26745;DHT22;14342;50.960;13.880;2023-03-04T00:49:40;1.70;99.90
26745;DHT22;14342;50.960;13.880;2023-03-04T00:50:40;1.60;99.90
26745;DHT22;14342;50.960;13.880;2023-03-04T00:51:42;1.50;99.90
26745;DHT22;14342;50.960;13.880;2023-03-04T00:52:43;1.50;99.90
26745;DHT22;14342;50.960;13.880;2023-03-04T00:53:44;1.50;99.90
26745;DHT22;14342;50.960;13.880;2023-03-04T00:54:46;1.50;99.90
26745;DHT22;14342;50.960;13.880;2023-03-04T00:55:48;1.50;99.90
26745;DHT22;14342;50.960;13.880;2023-03-04T00:56:50;1.50;99.90
26745;DHT22;14342;50.960;13.880;2023-03-04T00:57:51;1.50;99.90
26745;DHT22;14342;50.960;13.880;2023-03-04T00:58:52;1.50;99.90
26745;DHT22;14342;50.960;13.880;2023-03-04T00:59:53;1.60;99.90
26745;DHT22;14342;50.960;13.880;2023-03-04T01:00:54;1.60;99.90
26745;DHT22;14342;50.960;13.880;2023-03-04T01:01:55;1.50;99.90
26745;DHT22;14342;50.960;13.880;2023-03-04T01:02:56;1.40;99.90
26745;DHT22;14342;50.960;13.880;2023-03-04T01:03:57;1.50;99.90
26745;DHT22;14342;50.960;13.880;2023-03-04T01:04:58;1.40;99.90
26745;DHT22;14342;50.960;13.880;2023-03-04T01:05:59;1.40;99.90
26745;DHT22;14342;50.960;13.880;2023-03-04T01:07:00;1.30;99.90
26745;DHT22;14342;50.960;13.880;2023-03-04T01:08:01;1.40;99.90
26745;DHT22;14342;50.960;13.880;2023-03-04T01:09:02;1.50;99.90
26745;DHT22;14342;50.960;13.880;2023-03-04T01:10:04;1.60;99.90
26745;DHT22;14342;50.960;13.880;2023-03-04T01:11:05;1.50;99.90
26745;DHT22;14342;50.960;13.880;2023-03-04T01:12:08;1.60;99.90
26745;DHT22;14342;50.960;13.880;2023-03-04T01:13:09;1.70;99.90
26745;DHT22;14342;50.960;13.880;2023-03-04T01:14:10;1.70;99.90
26745;DHT22;14342;50.960;13.880;2023-03-04T01:15:12;1.70;99.90
26745;DHT22;14342;50.960;13.880;2023-03-04T01:16:14;1.70;99.90
26745;DHT22;14342;50.960;13.880;2023-03-04T01:17:14;1.70;99.90
26745;DHT22;14342;50.960;13.880;2023-03-04T01:18:16;1.70;99.90
26745;DHT22;14342;50.960;13.880;2023-03-04T01:19:16;1.80;99.90
26745;DHT22;14342;50.960;13.880;2023-03-04T01:20:18;1.90;99.90
26745;DHT22;14342;50.960;13.880;2023-03-04T01:21:18;2.10;99.90
26745;DHT22;14342;50.960;13.880;2023-03-04T01:22:20;2.10;99.90
26745;DHT22;14342;50.960;13.880;2023-03-04T01:23:20;2.20;99.90
26745;DHT22;14342;50.960;13.880;2023-03-04T01:24:22;2.00;99.90
26745;DHT22;14342;50.960;13.880;2023-03-04T01:25:23;1.90;99.90
26745;DHT22;14342;50.960;13.880;2023-03-04T01:26:24;1.90;99.90
26745;DHT22;14342;50.960;13.880;2023-03-04T01:27:26;2.20;99.90
26745;DHT22;14342;50.960;13.880;2023-03-04T01:28:27;1.90;99.90
26745;DHT22;14342;50.960;13.880;2023-03-04T01:29:28;2.00;99.90
26745;DHT22;14342;50.960;13.880;2023-03-04T01:30:29;2.10;99.90
26745;DHT22;14342;50.960;13.880;2023-03-04T01:31:30;2.20;99.90
26745;DHT22;14342;50.960;13.880;2023-03-04T01:32:32;2.40;99.90
26745;DHT22;14342;50.960;13.880;2023-03-04T01:33:32;2.60;99.90
26745;DHT22;14342;50.960;13.880;2023-03-04T01:34:33;2.60;99.90
26745;DHT22;14342;50.960;13.880;2023-03-04T01:35:35;2.80;99.90
26745;DHT22;14342;50.960;13.880;2023-03-04T01:36:36;2.70;99.90
26745;DHT22;14342;50.960;13.880;2023-03-04T01:37:37;2.60;99.90
26745;DHT22;14342;50.960;13.880;2023-03-04T01:38:39;2.70;99.90
26745;DHT22;14342;50.960;13.880;2023-03-04T01:39:39;2.60;99.90
26745;DHT22;14342;50.960;13.880;2023-03-04T01:40:41;2.70;99.90
26745;DHT22;14342;50.960;13.880;2023-03-04T01:41:41;2.70;99.90
26745;DHT22;14342;50.960;13.880;2023-03-04T01:42:44;2.80;99.90
26745;DHT22;14342;50.960;13.880;2023-03-04T01:43:45;2.80;99.90
26745;DHT22;14342;50.960;13.880;2023-03-04T01:44:46;2.80;99.90
26745;DHT22;14342;50.960;13.880;2023-03-04T01:45:47;2.90;99.90
26745;DHT22;14342;50.960;13.880;2023-03-04T01:46:50;3.10;99.90
26745;DHT22;14342;50.960;13.880;2023-03-04T01:47:51;3.10;99.90
26745;DHT22;14342;50.960;13.880;2023-03-04T01:48:53;2.90;99.90
26745;DHT22;14342;50.960;13.880;2023-03-04T01:49:55;3.00;99.90
26745;DHT22;14342;50.960;13.880;2023-03-04T01:50:57;2.90;99.90
26745;DHT22;14342;50.960;13.880;2023-03-04T01:51:58;2.90;99.90
26745;DHT22;14342;50.960;13.880;2023-03-04T01:53:00;2.70;99.90
26745;DHT22;14342;50.960;13.880;2023-03-04T01:54:00;2.80;99.90
26745;DHT22;14342;50.960;13.880;2023-03-04T01:55:05;2.80;99.90
26745;DHT22;14342;50.960;13.880;2023-03-04T01:56:10;2.70;99.90
26745;DHT22;14342;50.960;13.880;2023-03-04T01:57:14;2.80;99.90
26745;DHT22;14342;50.960;13.880;2023-03-04T01:58:17;2.80;99.90
26745;DHT22;14342;50.960;13.880;2023-03-04T01:59:19;2.80;99.90
26745;DHT22;14342;50.960;13.880;2023-03-04T02:00:25;2.80;99.90
26745;DHT22;14342;50.960;13.880;2023-03-04T02:01:27;2.70;99.90
26745;DHT22;14342;50.960;13.880;2023-03-04T02:02:28;2.50;99.90
26745;DHT22;14342;50.960;13.880;2023-03-04T02:03:29;2.60;99.90
26745;DHT22;14342;50.960;13.880;2023-03-04T02:04:30;2.50;99.90
26745;DHT22;14342;50.960;13.880;2023-03-04T02:05:33;2.40;99.90
26745;DHT22;14342;50.960;13.880;2023-03-04T02:06:35;2.50;99.90
26745;DHT22;14342;50.960;13.880;2023-03-04T02:07:37;2.70;99.90
26745;DHT22;14342;50.960;13.880;2023-03-04T02:08:37;2.90;99.90
26745;DHT22;14342;50.960;13.880;2023-03-04T02:09:39;2.80;99.90
26745;DHT22;14342;50.960;13.880;2023-03-04T02:10:40;2.90;99.90
26745;DHT22;14342;50.960;13.880;2023-03-04T02:11:42;2.80;99.90
26745;DHT22;14342;50.960;13.880;2023-03-04T02:12:44;2.90;99.90
26745;DHT22;14342;50.960;13.880;2023-03-04T02:13:47;2.80;99.90
26745;DHT22;14342;50.960;13.880;2023-03-04T02:14:47;2.90;99.90
26745;DHT22;14342;50.960;13.880;2023-03-04T02:15:49;2.90;99.90
26745;DHT22;14342;50.960;13.880;2023-03-04T02:16:49;2.90;99.90
26745;DHT22;14342;50.960;13.880;2023-03-04T02:17:51;2.80;99.90
26745;DHT22;14342;50.960;13.880;2023-03-04T02:18:51;2.70;99.90
26745;DHT22;14342;50.960;13.880;2023-03-04T02:19:55;2.70;99.90
26745;DHT22;14342;50.960;13.880;2023-03-04T02:21:00;2.60;99.90
26745;DHT22;14342;50.960;13.880;2023-03-04T02:22:02;2.60;99.90
26745;DHT22;14342;50.960;13.880;2023-03-04T02:23:05;2.50;99.90
26745;DHT22;14342;50.960;13.880;2023-03-04T02:24:09;2.60;99.90
26745;DHT22;14342;50.960;13.880;2023-03-04T02:25:12;2.50;99.90
26745;DHT22;14342;50.960;13.880;2023-03-04T02:26:18;2.40;99.90
26745;DHT22;14342;50.960;13.880;2023-03-04T02:27:19;2.40;99.90
26745;DHT22;14342;50.960;13.880;2023-03-04T02:28:20;2.30;99.90
26745;DHT22;14342;50.960;13.880;2023-03-04T02:29:21;2.40;99.90
26745;DHT22;14342;50.960;13.880;2023-03-04T02:30:23;2.30;99.90
26745;DHT22;14342;50.960;13.880;2023-03-04T02:31:25;2.40;99.90
26745;DHT22;14342;50.960;13.880;2023-03-04T02:32:27;2.50;99.90
26745;DHT22;14342;50.960;13.880;2023-03-04T02:33:28;2.60;99.90
26745;DHT22;14342;50.960;13.880;2023-03-04T02:34:30;2.60;99.90
26745;DHT22;14342;50.960;13.880;2023-03-04T02:35:31;2.60;99.90
26745;DHT22;14342;50.960;13.880;2023-03-04T02:36:33;2.60;99.90
26745;DHT22;14342;50.960;13.880;2023-03-04T02:37:33;2.70;99.90
26745;DHT22;14342;50.960;13.880;2023-03-04T02:38:35;2.70;99.90
26745;DHT22;14342;50.960;13.880;2023-03-04T02:39:38;2.70;99.90
26745;DHT22;14342;50.960;13.880;2023-03-04T02:40:41;2.70;99.90
26745;DHT22;14342;50.960;13.880;2023-03-04T02:41:43;2.60;99.90
26745;DHT22;14342;50.960;13.880;2023-03-04T02:42:45;2.50;99.90
26745;DHT22;14342;50.960;13.880;2023-03-04T02:43:46;2.40;99.90
26745;DHT22;14342;50.960;13.880;2023-03-04T02:44:48;2.70;99.90
26745;DHT22;14342;50.960;13.880;2023-03-04T02:45:50;2.50;99.90
26745;DHT22;14342;50.960;13.880;2023-03-04T02:46:52;2.60;99.90
26745;DHT22;14342;50.960;13.880;2023-03-04T02:47:52;2.50;99.90
26745;DHT22;14342;50.960;13.880;2023-03-04T02:48:54;2.50;99.90
26745;DHT22;14342;50.960;13.880;2023-03-04T02:49:54;2.50;99.90
26745;DHT22;14342;50.960;13.880;2023-03-04T02:50:56;2.60;99.90
26745;DHT22;14342;50.960;13.880;2023-03-04T02:51:58;2.70;99.90
26745;DHT22;14342;50.960;13.880;2023-03-04T02:53:00;2.90;99.90
26745;DHT22;14342;50.960;13.880;2023-03-04T02:54:01;2.70;99.90
26745;DHT22;14342;50.960;13.880;2023-03-04T02:55:02;2.70;99.90
26745;DHT22;14342;50.960;13.880;2023-03-04T02:56:03;2.50;99.90
26745;DHT22;14342;50.960;13.880;2023-03-04T02:57:07;2.60;99.90
26745;DHT22;14342;50.960;13.880;2023-03-04T02:58:08;2.60;99.90
26745;DHT22;14342;50.960;13.880;2023-03-04T02:59:10;2.60;99.90
26745;DHT22;14342;50.960;13.880;2023-03-04T03:00:11;2.60;99.90
26745;DHT22;14342;50.960;13.880;2023-03-04T03:01:13;2.60;99.90
26745;DHT22;14342;50.960;13.880;2023-03-04T03:02:13;2.70;99.90
26745;DHT22;14342;50.960;13.880;2023-03-04T03:03:15;2.70;99.90
26745;DHT22;14342;50.960;13.880;2023-03-04T03:04:15;2.60;99.90
26745;DHT22;14342;50.960;13.880;2023-03-04T03:05:17;2.60;99.90
26745;DHT22;14342;50.960;13.880;2023-03-04T03:06:18;2.70;99.90
26745;DHT22;14342;50.960;13.880;2023-03-04T03:07:19;2.60;99.90
26745;DHT22;14342;50.960;13.880;2023-03-04T03:08:20;2.50;99.90
26745;DHT22;14342;50.960;13.880;2023-03-04T03:09:21;2.60;99.90
26745;DHT22;14342;50.960;13.880;2023-03-04T03:10:22;2.70;99.90
26745;DHT22;14342;50.960;13.880;2023-03-04T03:11:24;2.70;99.90
26745;DHT22;14342;50.960;13.880;2023-03-04T03:12:25;2.70;99.90
26745;DHT22;14342;50.960;13.880;2023-03-04T03:13:27;2.60;99.90
26745;DHT22;14342;50.960;13.880;2023-03-04T03:14:29;2.70;99.90
26745;DHT22;14342;50.960;13.880;2023-03-04T03:15:29;2.70;99.90
26745;DHT22;14342;50.960;13.880;2023-03-04T03:16:31;2.80;99.90
26745;DHT22;14342;50.960;13.880;2023-03-04T03:17:31;2.80;99.90
26745;DHT22;14342;50.960;13.880;2023-03-04T03:18:33;2.80;99.90
26745;DHT22;14342;50.960;13.880;2023-03-04T03:19:34;2.80;99.90
26745;DHT22;14342;50.960;13.880;2023-03-04T03:20:35;2.80;99.90
26745;DHT22;14342;50.960;13.880;2023-03-04T03:21:37;2.80;99.90
26745;DHT22;14342;50.960;13.880;2023-03-04T03:22:37;3.00;99.90
26745;DHT22;14342;50.960;13.880;2023-03-04T03:23:39;2.70;99.90
26745;DHT22;14342;50.960;13.880;2023-03-04T03:24:39;2.60;99.90
26745;DHT22;14342;50.960;13.880;2023-03-04T03:25:41;2.50;99.90
26745;DHT22;14342;50.960;13.880;2023-03-04T03:26:42;2.50;99.90
26745;DHT22;14342;50.960;13.880;2023-03-04T03:27:44;2.50;99.90
26745;DHT22;14342;50.960;13.880;2023-03-04T03:28:46;2.40;99.90
26745;DHT22;14342;50.960;13.880;2023-03-04T03:29:46;2.30;99.90
26745;DHT22;14342;50.960;13.880;2023-03-04T03:30:48;2.30;99.90
26745;DHT22;14342;50.960;13.880;2023-03-04T03:31:49;2.20;99.90
26745;DHT22;14342;50.960;13.880;2023-03-04T03:32:50;2.10;99.90
26745;DHT22;14342;50.960;13.880;2023-03-04T03:33:51;2.10;99.90
26745;DHT22;14342;50.960;13.880;2023-03-04T03:34:52;1.80;99.90
26745;DHT22;14342;50.960;13.880;2023-03-04T03:35:53;1.70;99.90
26745;DHT22;14342;50.960;13.880;2023-03-04T03:36:54;1.60;99.90
26745;DHT22;14342;50.960;13.880;2023-03-04T03:37:55;1.70;99.90
26745;DHT22;14342;50.960;13.880;2023-03-04T03:38:56;1.80;99.90
26745;DHT22;14342;50.960;13.880;2023-03-04T03:39:57;1.70;99.90
26745;DHT22;14342;50.960;13.880;2023-03-04T03:40:58;1.80;99.90
26745;DHT22;14342;50.960;13.880;2023-03-04T03:41:59;1.70;99.90
26745;DHT22;14342;50.960;13.880;2023-03-04T03:43:01;1.70;99.90
26745;DHT22;14342;50.960;13.880;2023-03-04T03:44:03;1.70;99.90
26745;DHT22;14342;50.960;13.880;2023-03-04T03:45:04;1.70;99.90
26745;DHT22;14342;50.960;13.880;2023-03-04T03:46:05;1.80;99.90
26745;DHT22;14342;50.960;13.880;2023-03-04T03:47:06;2.00;99.90
26745;DHT22;14342;50.960;13.880;2023-03-04T03:48:07;2.10;99.90
26745;DHT22;14342;50.960;13.880;2023-03-04T03:49:09;2.10;99.90
26745;DHT22;14342;50.960;13.880;2023-03-04T03:50:09;2.10;99.90
26745;DHT22;14342;50.960;13.880;2023-03-04T03:51:11;2.00;99.90
26745;DHT22;14342;50.960;13.880;2023-03-04T03:52:11;2.20;99.90
26745;DHT22;14342;50.960;13.880;2023-03-04T03:53:13;2.20;99.90
26745;DHT22;14342;50.960;13.880;2023-03-04T03:54:13;2.20;99.90
26745;DHT22;14342;50.960;13.880;2023-03-04T03:55:15;2.10;99.90
26745;DHT22;14342;50.960;13.880;2023-03-04T03:56:15;2.00;99.90
26745;DHT22;14342;50.960;13.880;2023-03-04T03:57:17;2.00;99.90
26745;DHT22;14342;50.960;13.880;2023-03-04T03:58:19;2.00;99.90
26745;DHT22;14342;50.960;13.880;2023-03-04T03:59:21;1.90;99.90
26745;DHT22;14342;50.960;13.880;2023-03-04T04:00:23;1.90;99.90
26745;DHT22;14342;50.960;13.880;2023-03-04T04:01:24;1.80;99.90
26745;DHT22;14342;50.960;13.880;2023-03-04T04:02:25;1.90;99.90
26745;DHT22;14342;50.960;13.880;2023-03-04T04:03:26;1.80;99.90
26745;DHT22;14342;50.960;13.880;2023-03-04T04:04:27;2.00;99.90
26745;DHT22;14342;50.960;13.880;2023-03-04T04:05:28;2.00;99.90
26745;DHT22;14342;50.960;13.880;2023-03-04T04:06:29;2.00;99.90
26745;DHT22;14342;50.960;13.880;2023-03-04T04:07:30;1.90;99.90
26745;DHT22;14342;50.960;13.880;2023-03-04T04:08:31;1.90;99.90
26745;DHT22;14342;50.960;13.880;2023-03-04T04:09:32;1.80;99.90
26745;DHT22;14342;50.960;13.880;2023-03-04T04:10:33;1.80;99.90
26745;DHT22;14342;50.960;13.880;2023-03-04T04:11:35;1.90;99.90
26745;DHT22;14342;50.960;13.880;2023-03-04T04:12:36;2.10;99.90
26745;DHT22;14342;50.960;13.880;2023-03-04T04:13:39;2.10;99.90
26745;DHT22;14342;50.960;13.880;2023-03-04T04:14:39;2.00;99.90
26745;DHT22;14342;50.960;13.880;2023-03-04T04:15:41;2.00;99.90
26745;DHT22;14342;50.960;13.880;2023-03-04T04:16:41;2.10;99.90
26745;DHT22;14342;50.960;13.880;2023-03-04T04:17:43;2.10;99.90
26745;DHT22;14342;50.960;13.880;2023-03-04T04:18:43;2.00;99.90
26745;DHT22;14342;50.960;13.880;2023-03-04T04:19:45;2.00;99.90
26745;DHT22;14342;50.960;13.880;2023-03-04T04:20:45;2.10;99.90
26745;DHT22;14342;50.960;13.880;2023-03-04T04:21:47;2.10;99.90
26745;DHT22;14342;50.960;13.880;2023-03-04T04:22:48;2.00;99.90
26745;DHT22;14342;50.960;13.880;2023-03-04T04:23:49;1.90;99.90
26745;DHT22;14342;50.960;13.880;2023-03-04T04:24:50;1.90;99.90
26745;DHT22;14342;50.960;13.880;2023-03-04T04:25:53;1.90;99.90
26745;DHT22;14342;50.960;13.880;2023-03-04T04:26:53;1.80;99.90
26745;DHT22;14342;50.960;13.880;2023-03-04T04:27:56;1.80;99.90
26745;DHT22;14342;50.960;13.880;2023-03-04T04:28:58;1.90;99.90
26745;DHT22;14342;50.960;13.880;2023-03-04T04:29:59;1.90;99.90
26745;DHT22;14342;50.960;13.880;2023-03-04T04:31:00;1.80;99.90
26745;DHT22;14342;50.960;13.880;2023-03-04T04:32:01;1.80;99.90
26745;DHT22;14342;50.960;13.880;2023-03-04T04:33:02;1.80;99.90
26745;DHT22;14342;50.960;13.880;2023-03-04T04:34:04;1.90;99.90
26745;DHT22;14342;50.960;13.880;2023-03-04T04:35:05;1.80;99.90
26745;DHT22;14342;50.960;13.880;2023-03-04T04:36:07;1.80;99.90
26745;DHT22;14342;50.960;13.880;2023-03-04T04:37:08;1.90;99.90
26745;DHT22;14342;50.960;13.880;2023-03-04T04:38:10;2.00;99.90
26745;DHT22;14342;50.960;13.880;2023-03-04T04:39:10;2.00;99.90
26745;DHT22;14342;50.960;13.880;2023-03-04T04:40:12;2.00;99.90
26745;DHT22;14342;50.960;13.880;2023-03-04T04:41:16;2.10;99.90
26745;DHT22;14342;50.960;13.880;2023-03-04T04:42:18;2.10;99.90
26745;DHT22;14342;50.960;13.880;2023-03-04T04:43:19;2.20;99.90
26745;DHT22;14342;50.960;13.880;2023-03-04T04:44:22;2.10;99.90
26745;DHT22;14342;50.960;13.880;2023-03-04T04:45:23;2.10;99.90
26745;DHT22;14342;50.960;13.880;2023-03-04T04:46:24;2.20;99.90
26745;DHT22;14342;50.960;13.880;2023-03-04T04:47:25;2.10;99.90
26745;DHT22;14342;50.960;13.880;2023-03-04T04:48:27;2.20;99.90
26745;DHT22;14342;50.960;13.880;2023-03-04T04:49:27;2.30;99.90
26745;DHT22;14342;50.960;13.880;2023-03-04T04:50:29;2.50;99.90
26745;DHT22;14342;50.960;13.880;2023-03-04T04:51:29;2.50;99.90
26745;DHT22;14342;50.960;13.880;2023-03-04T04:52:31;2.50;99.90
26745;DHT22;14342;50.960;13.880;2023-03-04T04:53:32;2.40;99.90
26745;DHT22;14342;50.960;13.880;2023-03-04T04:54:33;2.40;99.90
26745;DHT22;14342;50.960;13.880;2023-03-04T04:55:34;2.50;99.90
26745;DHT22;14342;50.960;13.880;2023-03-04T04:56:35;2.50;99.90
26745;DHT22;14342;50.960;13.880;2023-03-04T04:57:36;2.50;99.90
26745;DHT22;14342;50.960;13.880;2023-03-04T04:58:37;2.60;99.90
26745;DHT22;14342;50.960;13.880;2023-03-04T04:59:39;2.70;99.90
26745;DHT22;14342;50.960;13.880;2023-03-04T05:00:41;2.80;99.90
26745;DHT22;14342;50.960;13.880;2023-03-04T05:01:41;2.70;99.90
26745;DHT22;14342;50.960;13.880;2023-03-04T05:02:43;2.60;99.90
26745;DHT22;14342;50.960;13.880;2023-03-04T05:03:44;2.60;99.90
26745;DHT22;14342;50.960;13.880;2023-03-04T05:04:45;2.60;99.90
26745;DHT22;14342;50.960;13.880;2023-03-04T05:05:46;2.50;99.90
26745;DHT22;14342;50.960;13.880;2023-03-04T05:06:48;2.60;99.90
26745;DHT22;14342;50.960;13.880;2023-03-04T05:07:49;2.60;99.90
26745;DHT22;14342;50.960;13.880;2023-03-04T05:08:51;2.60;99.90
26745;DHT22;14342;50.960;13.880;2023-03-04T05:09:51;2.60;99.90
26745;DHT22;14342;50.960;13.880;2023-03-04T05:10:53;2.60;99.90
26745;DHT22;14342;50.960;13.880;2023-03-04T05:11:53;2.60;99.90
26745;DHT22;14342;50.960;13.880;2023-03-04T05:12:55;2.70;99.90
26745;DHT22;14342;50.960;13.880;2023-03-04T05:13:55;2.80;99.90
26745;DHT22;14342;50.960;13.880;2023-03-04T05:14:58;2.50;99.90
26745;DHT22;14342;50.960;13.880;2023-03-04T05:15:59;2.50;99.90
26745;DHT22;14342;50.960;13.880;2023-03-04T05:17:00;2.50;99.90
26745;DHT22;14342;50.960;13.880;2023-03-04T05:18:01;2.50;99.90
26745;DHT22;14342;50.960;13.880;2023-03-04T05:19:02;2.70;99.90
26745;DHT22;14342;50.960;13.880;2023-03-04T05:20:03;2.50;99.90
26745;DHT22;14342;50.960;13.880;2023-03-04T05:21:06;2.50;99.90
26745;DHT22;14342;50.960;13.880;2023-03-04T05:22:07;2.50;99.90
26745;DHT22;14342;50.960;13.880;2023-03-04T05:23:08;2.50;99.90
26745;DHT22;14342;50.960;13.880;2023-03-04T05:24:09;2.40;99.90
26745;DHT22;14342;50.960;13.880;2023-03-04T05:25:11;2.20;99.90
26745;DHT22;14342;50.960;13.880;2023-03-04T05:26:12;2.30;99.90
26745;DHT22;14342;50.960;13.880;2023-03-04T05:27:14;2.20;99.90
26745;DHT22;14342;50.960;13.880;2023-03-04T05:28:14;2.30;99.90
26745;DHT22;14342;50.960;13.880;2023-03-04T05:29:16;2.40;99.90
26745;DHT22;14342;50.960;13.880;2023-03-04T05:30:18;2.50;99.90
26745;DHT22;14342;50.960;13.880;2023-03-04T05:31:19;2.40;99.90
26745;DHT22;14342;50.960;13.880;2023-03-04T05:32:20;2.30;99.90
26745;DHT22;14342;50.960;13.880;2023-03-04T05:33:21;2.30;99.90
26745;DHT22;14342;50.960;13.880;2023-03-04T05:34:22;2.30;99.90
26745;DHT22;14342;50.960;13.880;2023-03-04T05:35:23;2.30;99.90
26745;DHT22;14342;50.960;13.880;2023-03-04T05:36:24;2.30;99.90
26745;DHT22;14342;50.960;13.880;2023-03-04T05:37:25;2.30;99.90
26745;DHT22;14342;50.960;13.880;2023-03-04T05:38:26;2.30;99.90
26745;DHT22;14342;50.960;13.880;2023-03-04T05:39:27;2.30;99.90
26745;DHT22;14342;50.960;13.880;2023-03-04T05:40:28;2.30;99.90
26745;DHT22;14342;50.960;13.880;2023-03-04T05:41:30;2.10;99.90
26745;DHT22;14342;50.960;13.880;2023-03-04T05:42:31;2.10;99.90
26745;DHT22;14342;50.960;13.880;2023-03-04T05:43:32;2.20;99.90
26745;DHT22;14342;50.960;13.880;2023-03-04T05:44:35;2.30;99.90
26745;DHT22;14342;50.960;13.880;2023-03-04T05:45:37;2.30;99.90
26745;DHT22;14342;50.960;13.880;2023-03-04T05:46:38;2.30;99.90
26745;DHT22;14342;50.960;13.880;2023-03-04T05:47:39;2.20;99.90
26745;DHT22;14342;50.960;13.880;2023-03-04T05:48:41;2.30;99.90
26745;DHT22;14342;50.960;13.880;2023-03-04T05:49:42;2.50;99.90
26745;DHT22;14342;50.960;13.880;2023-03-04T05:50:43;2.50;99.90
26745;DHT22;14342;50.960;13.880;2023-03-04T05:51:44;2.80;99.90
26745;DHT22;14342;50.960;13.880;2023-03-04T05:52:45;2.60;99.90
26745;DHT22;14342;50.960;13.880;2023-03-04T05:53:46;2.70;99.90
26745;DHT22;14342;50.960;13.880;2023-03-04T05:54:48;2.70;99.90
26745;DHT22;14342;50.960;13.880;2023-03-04T05:55:48;2.60;99.90
26745;DHT22;14342;50.960;13.880;2023-03-04T05:56:50;2.60;99.90
26745;DHT22;14342;50.960;13.880;2023-03-04T05:57:50;3.00;99.90
26745;DHT22;14342;50.960;13.880;2023-03-04T05:58:52;2.80;99.90
26745;DHT22;14342;50.960;13.880;2023-03-04T05:59:55;2.70;99.90
26745;DHT22;14342;50.960;13.880;2023-03-04T06:00:59;2.60;99.90
26745;DHT22;14342;50.960;13.880;2023-03-04T06:02:00;2.60;99.90
26745;DHT22;14342;50.960;13.880;2023-03-04T06:03:02;2.70;99.90
26745;DHT22;14342;50.960;13.880;2023-03-04T06:04:03;2.60;99.90
26745;DHT22;14342;50.960;13.880;2023-03-04T06:05:05;2.50;99.90
26745;DHT22;14342;50.960;13.880;2023-03-04T06:06:06;2.40;99.90
26745;DHT22;14342;50.960;13.880;2023-03-04T06:07:08;2.30;99.90
26745;DHT22;14342;50.960;13.880;2023-03-04T06:08:08;2.40;99.90
26745;DHT22;14342;50.960;13.880;2023-03-04T06:09:10;2.30;99.90
26745;DHT22;14342;50.960;13.880;2023-03-04T06:10:12;2.20;99.90
26745;DHT22;14342;50.960;13.880;2023-03-04T06:11:14;2.20;99.90
26745;DHT22;14342;50.960;13.880;2023-03-04T06:12:14;2.40;99.90
26745;DHT22;14342;50.960;13.880;2023-03-04T06:13:16;2.20;99.90
26745;DHT22;14342;50.960;13.880;2023-03-04T06:14:16;2.30;99.90
26745;DHT22;14342;50.960;13.880;2023-03-04T06:15:18;2.30;99.90
26745;DHT22;14342;50.960;13.880;2023-03-04T06:16:20;2.30;99.90
26745;DHT22;14342;50.960;13.880;2023-03-04T06:17:22;2.20;99.90
26745;DHT22;14342;50.960;13.880;2023-03-04T06:18:23;2.20;99.90
26745;DHT22;14342;50.960;13.880;2023-03-04T06:19:24;2.10;99.90
26745;DHT22;14342;50.960;13.880;2023-03-04T06:20:25;2.10;99.90
26745;DHT22;14342;50.960;13.880;2023-03-04T06:21:26;2.20;99.90
26745;DHT22;14342;50.960;13.880;2023-03-04T06:22:27;2.20;99.90
26745;DHT22;14342;50.960;13.880;2023-03-04T06:23:29;2.20;99.90
26745;DHT22;14342;50.960;13.880;2023-03-04T06:24:30;2.20;99.90
26745;DHT22;14342;50.960;13.880;2023-03-04T06:25:31;2.20;99.90
26745;DHT22;14342;50.960;13.880;2023-03-04T06:26:32;2.20;99.90
26745;DHT22;14342;50.960;13.880;2023-03-04T06:27:33;2.10;99.90